SEBI

Registration No.

INH000000305

Ip Address Lookup

So far visitors:

customizable counter

TRIAL

TRIAL

SEND SMS FOR TRIAL

EQUITY - COMMODITY OR BOTH

TO

 09920033678

AND GET TRIAL

 

SEBI Registration No.: INH000000305 *****

* Commodity: 9500/month * Equity: 6000/month


* Gold Package: 7000 * Gold-Silver Package: 8100
*Crude-NG-Copper-Nickel Package: 6000


To See Past Performance, Click Here

For TRIAL / Registration,

click here

Past Performance >> Equity Tips
 
Search
 
Entry Start Date Entry End Date
Exit Start Date Exit End Date
Scrip Name Contract
Package
 

Packages: Precious Metals - Energy and Base Metals - Profit is calculated on basis of 1 lot per call

Package: Equity calls: Profit is calculated as follows:

1. If the scrip is in F & O then 1 lot is counted otherwise

2. Trade of Rs.1,50,000/- per call is counted.

 
Page: ( 1 2 3 4 5 6 7 8 9 10 11 12 13 14 15 16 17 18 19 20 21 22 23 24 25 26 27 28 29 30 31 32 33 34 35 36 37 38 39 40 41 42 43 44 45 46 47 48 49 50 51 52 53 54 55 56 57 58 59 60 61 62 63 64 65 66 67 68 69 70 71 72 73 74 75 76 77 78 79 80 81 82 83 84 85 86 87 88 89 90 91 92 93 94 95 96 97 98 99 100 101 102 103 104 105 106 107 108 109 110 ) [Current Page: 99]
Displaying 7351 to 7425   Calls
Entry Date Type Scrip Entry Price (Rs) T1
(Rs)
T2
(Rs)
T3
(Rs)
Stop Loss
(Rs)
Exit Date Exit Rate
(Rs)
Profit
(Rs)
 
12-08-11 Sell Below ICICI BANK 945 930 920 --- 959 12-08-11 934 2750.00 More
12-08-11 Buy BANK NIFTY 10375 10450 10550 10650 10320 12-08-11 10320 -1375.00 More
12-08-11 Sell Below BANK NIFTY 10320 10250 10150 10050 10375 12-08-11 10165 3875.00 More
11-08-11 Buy IDBI 121.20 130 135 140 117 16-08-11 117 -8400.00 More
11-08-11 Sell Below BIOCON 337 330 320 --- 343 11-08-11 333.05 3950.00 More
11-08-11 Sell BHEL 1770 1750 1730 --- 1795 11-08-11 1756.60 1675.00 More
10-08-11 Sell Below Cairn 275 265 255 --- 285 10-08-11 274.40 600.00 More
10-08-11 Buy HCC 29.25 30.50 32 --- 28 16-08-11 28 -5000.00 More
10-08-11 Buy BOMDYEING 311 320 330 --- 299 11-08-11 316.75 5750.00 More
09-08-11 Buy Unitech 28.75 31 34 --- 27 11-08-11 29.50 3000.00 More
09-08-11 Buy DCB 51 53 54 --- 48.50 09-08-11 52.90 15200.00 More
08-08-11 Sell Nifty 5080 5060 5040 --- 5097 08-08-11 5097 -850.00 More
08-08-11 Sell Havells India 349.50 340 330 --- 366 09-08-11 344.05 5450.00 More
08-08-11 Sell Nifty 5083 5060 5035 --- 5105 08-08-11 5105 -1100.00 More
05-08-11 Buy VOLTAS 130 134 138 142 128 08-08-11 128 -4000.00 More
05-08-11 Sell Havells India 353 340 330 --- 363 05-08-11 344 9000.00 More
05-08-11 Sell 420 410 400 --- 428 05-08-11 416 4000.00 More
05-08-11 Buy Nifty 5207 5230 5250 --- 5180 05-08-11 5230 1150.00 More
04-08-11 Sell Below Nifty 5402 5380 5360 --- 5421 04-08-11 5402 0.00 More
04-08-11 Buy SKUMARN 59.10 61.10 --- --- 58 04-08-11 58 -4400.00 More
04-08-11 Sell BHEL 1795 1775 1760 --- 1815 04-08-11 1773 2750.00 More
04-08-11 Sell 1650 1630 1610 --- 1665 05-08-11 1610 5000.00 More
03-08-11 Sell 419 410 402 --- 427 03-08-11 413.60 5400.00 More
03-08-11 Sell Aban Offshore 463 455 445 --- 471 03-08-11 471 -4000.00 More
03-08-11 Sell INFY 2737 2710 2675 --- 2760 03-08-11 2718.30 2337.50 More
01-08-11 Sell CANARA BANK 454 444 435 --- 465 01-08-11 454 0.00 More
01-08-11 Sell Below Bhushan Steel 388 380 370 --- 395 02-08-11 370 9000.00 More
01-08-11 Sell Below Sterlite Ind 160 155 150 --- 163 01-08-11 156.50 3500.00 More
01-08-11 Sell Below CIPLA 305 297 290 --- 309 01-08-11 305.80 -800.00 More
29-07-11 Buy Ranbaxy 546 553 560 --- 542 29-07-11 542 -2000.00 More
29-07-11 Sell Below Aban Offshore 495 485 478 --- 503 29-07-11 491.65 1675.00 More
29-07-11 Buy Nifty 5483 5505 5525 --- 5450 29-07-11 5515 1600.00 More
29-07-11 Sell HDFC 683.50 675 665 --- 693 29-07-11 678.05 2725.00 More
28-07-11 Buy BF Utilities 738 757 760 770 730 28-07-11 749 1540.00 More
28-07-11 Sell Below GRASIM 2145 2130 2110 --- 2160 28-07-11 2136 1125.00 More
28-07-11 Sell SAIL 129.50 126 123 --- 133 28-07-11 127.55 1950.00 More
28-07-11 Sell Below TATA MOTORS 948 930 915 --- 960 28-07-11 960 -3000.00 More
27-07-11 Sell AXIS BANK 1305 1285 1265 --- 1325 27-07-11 1294.50 2625.00 More
27-07-11 Sell BHEL 1889 1870 1850 --- 1914 27-07-11 1833 7000.00 More
26-07-11 Buy RelMedia 129.50 133 135 137 127 27-07-11 127 -5000.00 More
26-07-11 Buy HERO MOTOR 1820 1834 1840 1845 1805 27-07-11 1805 -1875.00 More
26-07-11 Buy BHEL 1993 2010 2020 2030 1970 26-07-11 1970 -2875.00 More
26-07-11 Buy HCL TECH 517 527 540 --- 507 27-07-11 507 -5000.00 More
26-07-11 Buy SAIL 134.50 139 142 --- 131 26-07-11 131 -3500.00 More
25-07-11 Buy BANK NIFTY 11420 11550 11600 11700 11324 25-07-11 11408 -300.00 More
25-07-11 Buy Suzlon Energy 54.35 56 58 --- 53.35 26-07-11 53.35 -8000.00 More
25-07-11 Buy Above ACC 998 1010 1025 --- 985 26-07-11 1011 3250.00 More
22-07-11 Buy TCS 1130 1145 1160 --- 1119 22-07-11 1130 0.00 More
21-07-11 Sell BANK NIFTY 11140 11075 11000 --- 11200 21-07-11 11035 2625.00 More
21-07-11 Sell ZEEL 121.70 118 114 --- 125 21-07-11 116 11400.00 More
21-07-11 Buy Nifty 5572 5590 5610 --- 5550 21-07-11 5550 -1100.00 More
21-07-11 Sell Below HINDALCO 177 174 170 --- 180 21-07-11 177 0.00 More
20-07-11 Sell Below ONGC 275 270 265 --- 279 22-07-11 279 -4000.00 More
20-07-11 Buy Above ITC 207 214 220 --- 201 22-07-11 207 0.00 More
19-07-11 Buy Above Nifty 5590 5610 5630 --- 5568 19-07-11 5625 1750.00 More
19-07-11 Buy BOI 412 420 430 --- 400 20-07-11 409 -1500.00 More
19-07-11 Buy Above Aptech 119 127 140 --- 107 19-07-11 127 6720.00 More
18-07-11 Buy MOIL 369 380 395 --- 360 21-07-11 360 -2430.00 More
18-07-11 Buy Tata Power 1284 1300 1320 --- 1266 19-07-11 1311 6750.00 More
18-07-11 Buy GOCLCORP 95 100 105 --- 91 20-07-11 100.75 5922.50 More
15-07-11 Buy PTC 83 86 90 --- 78 22-07-11 83 0.00 More
14-07-11 Buy SUN PHARMA 512 522 530 --- 502 18-07-11 502 -5000.00 More
14-07-11 Buy IDFC 132.40 138 144 --- 128 14-07-11 138 11200.00 More
14-07-11 Sell Nifty 5569 5550 5535 --- 5588 14-07-11 5549 1000.00 More
14-07-11 Buy PFC 197 205 215 --- 189 14-07-11 214.90 17900.00 More
13-07-11 Sell CIPLA 322 317 312 --- 325 14-07-11 325 -3000.00 More
12-07-11 Sell Below HINDALCO 178 174 170 --- 181 12-07-11 175.70 2300.00 More
12-07-11 Sell Below Ambuja Cement 123 119 115 --- 126 12-07-11 120.50 5000.00 More
12-07-11 Buy Orchid Chem 252 260 266 --- 244 15-07-11 249 -6000.00 More
12-07-11 Sell HCL TECH 490 482 470 --- 499 12-07-11 484.50 2750.00 More
11-07-11 Buy 1830 1845 1870 --- 1805 11-07-11 1849 2375.00 More
11-07-11 Sell Below BANK NIFTY 11224 11150 11075 11000 11300 11-07-11 11122 2550.00 More
08-07-11 Buy INFY 3005 3030 3050 --- 2985 08-07-11 2985 -2500.00 More
08-07-11 Buy Above HDIL 170 177 185 --- 162 08-07-11 175.45 10900.00 More
08-07-11 Buy Above 465 474 482 --- 452 12-07-11 452 -13000.00 More
Page wise profit 99015.00 Rs
Profit 25633977.00 Rs
TRIAL

TRIAL

SEND SMS FOR TRIAL

EQUITY - COMMODITY OR BOTH

TO

 09920033678

AND GET TRIAL